Time;durP1;ratioP1;P1;durP2;ratioP2;P2;SDS_P1;SDS_P2;PMS_P1;PMS_P2;Temp;Humidity;BMP_temperature;BMP_pressure;BME280_temperature;BME280_humidity;BME280_pressure;Samples;Min_cycle;Max_cycle;Signal;HPM_P1;HPM_P2
2021/12/15 00:01:06;;;;;;;49.07;29.67;;;8.30;99.90;;;;;;5036969;28;20178;-76
2021/12/15 00:03:32;;;;;;;49.57;29.07;;;8.30;99.90;;;;;;5033967;28;20215;-75
2021/12/15 00:05:58;;;;;;;47.83;29.27;;;8.30;99.90;;;;;;5034911;28;20175;-77
2021/12/15 00:08:24;;;;;;;46.23;29.23;;;8.30;99.90;;;;;;5034107;28;20171;-82
2021/12/15 00:10:50;;;;;;;47.47;29.43;;;8.30;99.90;;;;;;5034848;28;20179;-81
2021/12/15 00:13:19;;;;;;;53.13;29.70;;;8.40;99.90;;;;;;5035297;28;20520;-80
2021/12/15 00:15:46;;;;;;;46.67;28.77;;;8.40;99.90;;;;;;5034448;28;20227;-79
2021/12/15 00:18:12;;;;;;;47.53;27.97;;;8.40;99.90;;;;;;5033885;28;20240;-80
2021/12/15 00:20:39;;;;;;;43.17;28.30;;;8.40;99.90;;;;;;5035881;28;20654;-76
2021/12/15 00:23:05;;;;;;;48.13;28.70;;;8.40;99.90;;;;;;5035173;28;20264;-77
2021/12/15 00:25:34;;;;;;;40.07;26.70;;;8.40;99.90;;;;;;5035074;28;20195;-76
2021/12/15 00:28:00;;;;;;;45.57;27.87;;;8.30;99.90;;;;;;5034591;28;20641;-77
2021/12/15 00:30:26;;;;;;;46.77;28.47;;;8.30;99.90;;;;;;5034751;28;20183;-77
2021/12/15 00:32:53;;;;;;;41.17;26.33;;;8.30;99.90;;;;;;5034521;28;20187;-78
2021/12/15 00:35:20;;;;;;;49.37;28.27;;;8.30;99.90;;;;;;5045676;28;20172;-77
2021/12/15 00:37:46;;;;;;;39.83;26.83;;;8.40;99.90;;;;;;5045620;28;20230;-77
2021/12/15 00:40:13;;;;;;;43.63;26.13;;;8.30;99.90;;;;;;5032486;28;20211;-72
2021/12/15 00:42:39;;;;;;;44.70;27.70;;;8.30;99.90;;;;;;5026065;28;20270;-66
2021/12/15 00:45:06;;;;;;;43.93;28.37;;;8.40;99.90;;;;;;5031509;28;20266;-64
2021/12/15 00:47:32;;;;;;;45.20;28.40;;;8.30;99.90;;;;;;5034312;28;20233;-63
2021/12/15 00:49:57;;;;;;;47.70;27.63;;;8.20;99.90;;;;;;5032580;28;20731;-64
2021/12/15 00:52:23;;;;;;;48.07;26.60;;;8.30;99.90;;;;;;5033697;28;20175;-64
2021/12/15 00:54:49;;;;;;;45.33;26.40;;;8.30;99.90;;;;;;5034593;28;20392;-66
2021/12/15 00:57:14;;;;;;;50.83;28.80;;;8.20;99.90;;;;;;5035824;28;20685;-66
2021/12/15 00:59:40;;;;;;;41.17;28.00;;;8.20;99.90;;;;;;5034056;28;20309;-67
2021/12/15 01:02:07;;;;;;;55.13;28.73;;;8.20;99.90;;;;;;5035227;28;20183;-65
2021/12/15 01:04:34;;;;;;;48.73;29.70;;;8.30;99.90;;;;;;5035774;28;20190;-66
2021/12/15 01:07:04;;;;;;;49.67;27.93;;;8.20;99.90;;;;;;5031624;28;20179;-65
2021/12/15 01:09:38;;;;;;;52.10;30.47;;;8.20;99.90;;;;;;5034237;28;20176;-67
2021/12/15 01:20:19;;;;;;;46.87;27.40;;;8.30;99.90;;;;;;5034753;28;20242;-65
2021/12/15 01:22:48;;;;;;;54.07;28.17;;;8.30;99.90;;;;;;5034208;28;20199;-65
2021/12/15 01:25:36;;;;;;;46.43;27.07;;;8.30;99.90;;;;;;5033679;28;20191;-65
2021/12/15 01:28:02;;;;;;;50.80;28.13;;;8.30;99.90;;;;;;5034170;28;20502;-66
2021/12/15 01:30:32;;;;;;;49.80;28.07;;;8.30;99.90;;;;;;5033572;28;20184;-64
2021/12/15 01:33:00;;;;;;;48.47;29.43;;;8.30;99.90;;;;;;5035519;28;20182;-65
2021/12/15 01:35:26;;;;;;;43.33;27.50;;;8.20;99.90;;;;;;5033912;28;20546;-65
2021/12/15 01:37:53;;;;;;;51.23;28.53;;;8.20;99.90;;;;;;5033749;28;20245;-65
2021/12/15 01:40:33;;;;;;;51.53;28.50;;;8.20;99.90;;;;;;5035382;28;20622;-65
2021/12/15 01:43:00;;;;;;;49.27;27.60;;;8.20;99.90;;;;;;5034580;28;20194;-65
2021/12/15 01:48:13;;;;;;;50.47;28.43;;;8.30;99.90;;;;;;5034615;28;20589;-65
2021/12/15 01:50:40;;;;;;;44.77;27.07;;;8.40;99.90;;;;;;5032991;28;20175;-64
2021/12/15 01:53:09;;;;;;;45.73;27.50;;;8.40;99.90;;;;;;5033564;28;20186;-63
2021/12/15 01:55:35;;;;;;;41.37;24.73;;;8.50;99.90;;;;;;5034980;28;20192;-65
2021/12/15 01:58:00;;;;;;;43.00;24.60;;;8.50;99.90;;;;;;5035160;28;20214;-65
2021/12/15 02:00:48;;;;;;;44.67;27.27;;;8.40;99.90;;;;;;5037397;28;20606;-64
2021/12/15 02:03:14;;;;;;;42.97;26.73;;;8.50;99.90;;;;;;5037774;28;20194;-64
2021/12/15 02:05:40;;;;;;;45.63;25.83;;;8.50;99.90;;;;;;5035035;28;20183;-65
2021/12/15 02:08:07;;;;;;;45.77;27.00;;;8.40;99.90;;;;;;5028544;28;20180;-64
2021/12/15 02:10:35;;;;;;;43.93;25.73;;;8.50;99.90;;;;;;5028402;28;20199;-64
2021/12/15 02:13:05;;;;;;;39.43;25.00;;;8.40;99.90;;;;;;5028373;28;20299;-63
2021/12/15 02:15:41;;;;;;;44.57;26.00;;;8.40;99.90;;;;;;5027948;28;20231;-63
2021/12/15 02:18:11;;;;;;;38.27;24.70;;;8.40;99.90;;;;;;5027972;28;20214;-64
2021/12/15 02:20:40;;;;;;;43.37;27.30;;;8.50;99.90;;;;;;5028190;28;20184;-64
2021/12/15 02:23:08;;;;;;;44.43;27.50;;;8.50;99.90;;;;;;5028270;28;20179;-64
2021/12/15 02:25:33;;;;;;;42.30;25.17;;;8.40;99.90;;;;;;5028111;28;20278;-65
2021/12/15 02:28:02;;;;;;;42.47;25.60;;;8.40;99.90;;;;;;5028227;28;20297;-65
2021/12/15 02:30:47;;;;;;;45.43;24.97;;;8.40;99.90;;;;;;5027960;28;20270;-66
2021/12/15 02:38:38;;;;;;;37.67;23.07;;;8.50;99.90;;;;;;5027671;28;20250;-65
2021/12/15 02:41:09;;;;;;;35.20;22.53;;;8.50;99.90;;;;;;5027777;28;20237;-65
2021/12/15 02:43:35;;;;;;;34.47;22.20;;;8.40;99.90;;;;;;5027786;28;20284;-65
2021/12/15 02:46:01;;;;;;;36.13;22.17;;;8.40;99.90;;;;;;5027733;28;20302;-65
2021/12/15 02:48:26;;;;;;;36.53;23.17;;;8.40;99.90;;;;;;5027689;28;20188;-65
2021/12/15 02:50:53;;;;;;;39.37;22.70;;;8.40;99.90;;;;;;5028226;28;20655;-65
2021/12/15 02:53:19;;;;;;;32.53;20.67;;;8.40;99.90;;;;;;5036696;28;20234;-64
2021/12/15 02:55:44;;;;;;;35.97;20.83;;;8.40;99.90;;;;;;5040791;28;20223;-65
2021/12/15 02:58:11;;;;;;;33.00;21.70;;;8.40;99.90;;;;;;5027633;28;20218;-66
2021/12/15 03:00:48;;;;;;;35.93;21.77;;;8.40;99.90;;;;;;5037279;28;20540;-65
2021/12/15 03:06:04;;;;;;;36.67;23.03;;;8.40;99.90;;;;;;5047058;28;20175;-66
2021/12/15 03:16:45;;;;;;;36.37;22.43;;;8.50;99.90;;;;;;5029400;28;20338;-65
2021/12/15 03:19:12;;;;;;;35.57;21.57;;;8.60;99.90;;;;;;5046914;28;20274;-65
2021/12/15 03:21:37;;;;;;;38.27;21.63;;;8.70;99.90;;;;;;5046847;28;20764;-65
2021/12/15 03:24:15;;;;;;;37.83;21.67;;;8.60;99.90;;;;;;5046267;28;20977;-65
2021/12/15 03:26:52;;;;;;;36.13;21.60;;;8.50;99.90;;;;;;5046647;28;20175;-65
2021/12/15 03:35:02;;;;;;;35.60;21.27;;;8.60;99.90;;;;;;5046827;28;20758;-65
2021/12/15 03:37:31;;;;;;;39.93;22.40;;;8.60;99.90;;;;;;5046707;28;20205;-65
2021/12/15 03:40:16;;;;;;;37.60;23.37;;;8.60;99.90;;;;;;5045817;28;20190;-65
2021/12/15 03:42:47;;;;;;;36.13;22.33;;;8.60;99.90;;;;;;5046066;28;20228;-65
2021/12/15 03:45:19;;;;;;;39.50;22.80;;;8.60;99.90;;;;;;5046304;28;20198;-65
2021/12/15 03:47:48;;;;;;;35.40;23.13;;;8.60;99.90;;;;;;5046026;28;20175;-65
2021/12/15 03:50:17;;;;;;;38.57;21.97;;;8.50;99.90;;;;;;5045311;28;20171;-65
2021/12/15 03:52:48;;;;;;;37.87;22.80;;;8.50;99.90;;;;;;5045925;28;20187;-64
2021/12/15 03:55:16;;;;;;;35.07;23.97;;;8.50;99.90;;;;;;5046048;28;20209;-65
2021/12/15 03:57:41;;;;;;;36.30;22.03;;;8.60;99.90;;;;;;5045817;28;20294;-64
2021/12/15 04:00:10;;;;;;;40.03;21.77;;;8.60;99.90;;;;;;5046039;28;20273;-65
2021/12/15 04:02:35;;;;;;;32.80;20.83;;;8.50;99.90;;;;;;5045998;28;20170;-65
2021/12/15 04:05:02;;;;;;;34.50;21.80;;;8.50;99.90;;;;;;5045744;28;20179;-65
2021/12/15 04:07:28;;;;;;;36.17;21.57;;;8.50;99.90;;;;;;5045789;28;20183;-65
2021/12/15 04:09:53;;;;;;;34.03;21.03;;;8.50;99.90;;;;;;5045896;28;20956;-65
2021/12/15 04:12:20;;;;;;;37.87;23.13;;;8.40;99.90;;;;;;5045887;28;20183;-65
2021/12/15 04:14:54;;;;;;;32.40;20.37;;;8.40;99.90;;;;;;5043653;28;20629;-65
2021/12/15 04:17:30;;;;;;;33.90;20.37;;;8.50;99.90;;;;;;5045605;28;20209;-65
2021/12/15 04:20:03;;;;;;;35.60;22.23;;;8.40;99.90;;;;;;5044976;28;20178;-65
2021/12/15 04:22:28;;;;;;;34.27;21.57;;;8.40;99.90;;;;;;5045446;28;20653;-65
2021/12/15 04:24:56;;;;;;;30.37;19.67;;;8.50;99.90;;;;;;5045675;28;20175;-65
2021/12/15 04:27:22;;;;;;;33.83;21.13;;;8.50;99.90;;;;;;5045363;28;20958;-66
2021/12/15 04:29:50;;;;;;;31.87;21.57;;;8.50;99.90;;;;;;5045343;28;20175;-65
2021/12/15 04:32:31;;;;;;;31.63;20.93;;;8.50;99.90;;;;;;5045403;28;20651;-66
2021/12/15 04:34:57;;;;;;;34.33;21.30;;;8.40;99.90;;;;;;5045078;28;20179;-66
2021/12/15 04:37:23;;;;;;;30.63;19.43;;;8.50;99.90;;;;;;5045383;28;20206;-66
2021/12/15 04:39:49;;;;;;;32.33;20.13;;;8.40;99.90;;;;;;5045196;28;20224;-65
2021/12/15 04:42:18;;;;;;;32.67;20.27;;;8.50;99.90;;;;;;5045208;28;20219;-65
2021/12/15 04:44:44;;;;;;;29.23;19.20;;;8.50;99.90;;;;;;5044929;28;20201;-65
2021/12/15 04:47:12;;;;;;;30.50;19.60;;;8.50;99.90;;;;;;5045382;28;20204;-65
2021/12/15 04:49:50;;;;;;;28.93;19.60;;;8.40;99.90;;;;;;5045365;28;20178;-65
2021/12/15 04:52:20;;;;;;;33.40;21.17;;;8.50;99.90;;;;;;5045079;28;20228;-65
2021/12/15 04:54:46;;;;;;;33.83;21.10;;;8.50;99.90;;;;;;5045009;28;20653;-65
2021/12/15 04:57:15;;;;;;;29.70;19.47;;;8.40;99.90;;;;;;5044972;28;20199;-65
2021/12/15 04:59:41;;;;;;;33.17;21.83;;;8.40;99.90;;;;;;5041098;28;20211;-64
2021/12/15 05:02:08;;;;;;;33.70;21.07;;;8.40;99.90;;;;;;5039116;28;20278;-64
2021/12/15 05:04:33;;;;;;;29.53;19.30;;;8.50;99.90;;;;;;5029239;28;20187;-65
2021/12/15 05:06:59;;;;;;;33.77;21.43;;;8.50;99.90;;;;;;5045154;28;20613;-65
2021/12/15 05:09:24;;;;;;;35.37;21.27;;;8.50;99.90;;;;;;5045037;28;20200;-65
2021/12/15 05:11:50;;;;;;;34.83;20.47;;;8.40;99.90;;;;;;5044985;28;20843;-65
2021/12/15 05:14:18;;;;;;;28.63;20.40;;;8.40;99.90;;;;;;5044888;28;20171;-64
2021/12/15 05:16:44;;;;;;;30.10;18.67;;;8.40;99.90;;;;;;5044723;28;20230;-64
2021/12/15 05:19:10;;;;;;;31.40;20.40;;;8.50;99.90;;;;;;5045166;28;20216;-64
2021/12/15 05:21:35;;;;;;;30.07;18.80;;;8.50;99.90;;;;;;5044841;28;20186;-65
2021/12/15 05:24:11;;;;;;;30.40;20.47;;;8.50;99.90;;;;;;5044995;28;20175;-65
2021/12/15 05:26:37;;;;;;;32.50;21.40;;;8.50;99.90;;;;;;5045345;28;20242;-66
2021/12/15 05:29:02;;;;;;;35.57;21.57;;;8.60;99.90;;;;;;5044849;28;20344;-66
2021/12/15 05:31:28;;;;;;;34.60;20.87;;;8.50;99.90;;;;;;5046268;28;20182;-66
2021/12/15 05:33:53;;;;;;;34.00;20.07;;;8.60;99.90;;;;;;5048929;28;20174;-64
2021/12/15 05:36:19;;;;;;;31.67;20.73;;;8.70;99.90;;;;;;5048955;28;20186;-64
2021/12/15 05:38:44;;;;;;;27.13;18.53;;;8.50;99.90;;;;;;5048555;28;20210;-65
2021/12/15 05:41:10;;;;;;;30.73;19.33;;;8.60;99.90;;;;;;5048412;28;20177;-64
2021/12/15 05:43:35;;;;;;;28.33;18.93;;;8.60;99.90;;;;;;5048930;28;20212;-65
2021/12/15 05:46:01;;;;;;;30.70;19.83;;;8.70;99.90;;;;;;5048370;28;20182;-66
2021/12/15 05:48:27;;;;;;;29.67;20.60;;;8.70;99.90;;;;;;5048998;28;20252;-65
2021/12/15 05:50:54;;;;;;;33.70;22.00;;;8.70;99.90;;;;;;5044600;28;20247;-66
2021/12/15 05:53:21;;;;;;;29.73;19.47;;;8.70;99.90;;;;;;5035930;28;20216;-64
2021/12/15 05:55:47;;;;;;;29.20;18.03;;;8.60;99.90;;;;;;5028544;28;20179;-63
2021/12/15 05:58:12;;;;;;;32.30;20.50;;;8.70;99.90;;;;;;5048755;28;20229;-62
2021/12/15 06:00:40;;;;;;;34.73;22.20;;;8.70;99.90;;;;;;5049242;28;20178;-63
2021/12/15 06:03:06;;;;;;;31.80;20.97;;;8.70;99.90;;;;;;5029090;28;20184;-66
2021/12/15 06:05:33;;;;;;;32.90;20.40;;;8.70;99.90;;;;;;5028861;28;20229;-65
2021/12/15 06:07:59;;;;;;;31.33;20.47;;;8.60;99.90;;;;;;5029592;28;20270;-65
2021/12/15 06:10:29;;;;;;;31.17;19.37;;;8.60;99.90;;;;;;5028038;28;20646;-63
2021/12/15 06:12:55;;;;;;;30.50;20.40;;;8.60;99.90;;;;;;5028099;28;20175;-63
2021/12/15 06:15:28;;;;;;;32.63;20.50;;;8.60;99.90;;;;;;5028359;28;20697;-64
2021/12/15 06:17:59;;;;;;;28.20;18.63;;;8.60;99.90;;;;;;5027756;28;20211;-64
2021/12/15 06:20:25;;;;;;;25.83;17.80;;;8.60;99.90;;;;;;5028364;28;20175;-64
2021/12/15 06:22:53;;;;;;;29.70;21.23;;;8.60;99.90;;;;;;5028466;28;20306;-64
2021/12/15 06:25:20;;;;;;;32.50;19.73;;;8.60;99.90;;;;;;5039725;28;20278;-66
2021/12/15 06:27:45;;;;;;;32.20;20.90;;;8.50;99.90;;;;;;5037251;28;20276;-63
2021/12/15 06:30:11;;;;;;;29.33;19.10;;;8.50;99.90;;;;;;5027398;28;20184;-66
2021/12/15 06:32:37;;;;;;;25.50;18.13;;;8.50;99.90;;;;;;5044590;28;20187;-65
2021/12/15 06:35:04;;;;;;;30.03;19.60;;;8.50;99.90;;;;;;5039349;28;20191;-66
2021/12/15 06:37:30;;;;;;;28.10;18.27;;;8.60;99.90;;;;;;5037072;28;20252;-66
2021/12/15 06:39:56;;;;;;;27.00;18.60;;;8.70;99.90;;;;;;5038557;28;20183;-66
2021/12/15 06:42:21;;;;;;;25.87;16.63;;;8.70;99.90;;;;;;5037028;28;20660;-66
2021/12/15 06:44:47;;;;;;;33.37;18.10;;;8.70;99.90;;;;;;5034708;28;20183;-66
2021/12/15 07:00:32;;;;;;;27.77;17.63;;;8.70;99.90;;;;;;5036729;28;20174;-64
2021/12/15 07:03:00;;;;;;;26.47;17.73;;;8.60;99.90;;;;;;5035803;28;20171;-64
2021/12/15 07:05:27;;;;;;;25.13;17.30;;;8.70;99.90;;;;;;5036426;28;20183;-65
2021/12/15 07:07:54;;;;;;;23.07;16.00;;;8.70;99.90;;;;;;5037782;28;20178;-64
2021/12/15 07:10:25;;;;;;;25.73;17.50;;;8.70;99.90;;;;;;5036781;28;20421;-63
2021/12/15 07:12:52;;;;;;;27.27;18.03;;;8.70;99.90;;;;;;5032422;28;20191;-63
2021/12/15 07:15:18;;;;;;;22.10;15.97;;;8.70;99.90;;;;;;5037360;28;20690;-63
2021/12/15 07:17:50;;;;;;;23.80;17.13;;;8.60;99.90;;;;;;5036158;28;20200;-64
2021/12/15 07:20:32;;;;;;;20.97;15.10;;;8.70;99.90;;;;;;5035373;28;20199;-64
2021/12/15 07:23:00;;;;;;;22.30;16.33;;;8.70;99.90;;;;;;5035444;28;20262;-64
2021/12/15 07:25:27;;;;;;;21.00;15.57;;;8.70;99.90;;;;;;5036289;28;20163;-65
2021/12/15 07:27:53;;;;;;;28.07;16.13;;;8.70;99.90;;;;;;5037327;28;20649;-66
2021/12/15 07:30:19;;;;;;;26.10;16.23;;;8.70;99.90;;;;;;5035878;28;20183;-66
2021/12/15 07:32:45;;;;;;;24.13;17.03;;;8.80;99.90;;;;;;5036402;28;20642;-64
2021/12/15 07:35:13;;;;;;;22.60;14.83;;;8.80;99.90;;;;;;5039020;28;20171;-64
2021/12/15 07:37:40;;;;;;;23.00;17.07;;;8.80;99.90;;;;;;5037970;28;20192;-64
2021/12/15 07:40:12;;;;;;;20.23;14.37;;;8.90;99.90;;;;;;5040521;28;20252;-64
2021/12/15 07:42:54;;;;;;;20.60;14.40;;;8.80;99.90;;;;;;5044668;28;20167;-64
2021/12/15 07:45:22;;;;;;;21.53;16.03;;;8.90;99.90;;;;;;5039682;28;20167;-66
2021/12/15 07:47:58;;;;;;;19.83;14.90;;;8.90;99.90;;;;;;5043248;28;20280;-71
2021/12/15 07:50:26;;;;;;;21.43;14.77;;;8.90;99.90;;;;;;5043979;28;20194;-71
2021/12/15 07:52:52;;;;;;;17.87;14.27;;;8.80;99.90;;;;;;5039910;28;20207;-71
2021/12/15 07:55:19;;;;;;;21.97;14.37;;;8.80;99.90;;;;;;5040645;28;20191;-71
2021/12/15 07:57:45;;;;;;;20.07;15.13;;;8.80;99.90;;;;;;5038313;28;20198;-71
2021/12/15 08:00:13;;;;;;;18.93;13.80;;;8.80;99.90;;;;;;5031734;28;20183;-75
2021/12/15 08:02:39;;;;;;;20.67;15.70;;;8.80;99.90;;;;;;5031839;28;20199;-71
2021/12/15 08:05:06;;;;;;;20.30;15.23;;;8.70;99.90;;;;;;5036424;28;20634;-71
2021/12/15 08:07:32;;;;;;;23.87;16.47;;;8.70;99.90;;;;;;5035686;28;20221;-70
2021/12/15 08:09:59;;;;;;;20.73;14.47;;;8.70;99.90;;;;;;5039254;28;20175;-70
2021/12/15 08:12:27;;;;;;;24.10;16.20;;;8.70;99.90;;;;;;5036784;28;20180;-71
2021/12/15 08:14:53;;;;;;;20.00;14.13;;;8.70;99.90;;;;;;5035226;28;20286;-71
2021/12/15 08:17:20;;;;;;;20.00;14.67;;;8.80;99.90;;;;;;5046272;28;20286;-71
2021/12/15 08:19:45;;;;;;;21.07;15.77;;;8.70;99.90;;;;;;5036195;28;20191;-73
2021/12/15 08:22:11;;;;;;;21.53;14.53;;;8.70;99.90;;;;;;5034657;28;20634;-70
2021/12/15 08:24:37;;;;;;;19.70;13.73;;;8.70;99.90;;;;;;5036939;28;20209;-71
2021/12/15 08:27:03;;;;;;;20.33;13.07;;;8.80;99.90;;;;;;5034160;28;20180;-71
2021/12/15 08:29:29;;;;;;;20.77;15.00;;;8.80;99.90;;;;;;5036201;28;20174;-69
2021/12/15 08:31:54;;;;;;;18.23;14.17;;;8.80;99.90;;;;;;5036246;28;20179;-71
2021/12/15 08:34:20;;;;;;;17.93;13.27;;;8.80;99.90;;;;;;5034783;28;20173;-70
2021/12/15 08:36:49;;;;;;;21.83;15.07;;;8.80;99.90;;;;;;5038066;28;20305;-71
2021/12/15 08:39:16;;;;;;;20.67;13.97;;;8.90;99.90;;;;;;5033443;28;20204;-70
2021/12/15 08:41:42;;;;;;;20.17;13.90;;;8.90;99.90;;;;;;5034552;28;20338;-70
2021/12/15 08:44:09;;;;;;;20.27;13.53;;;9.00;99.90;;;;;;5036825;28;20190;-70
2021/12/15 08:46:39;;;;;;;20.97;15.07;;;8.90;99.90;;;;;;5038583;28;20175;-72
2021/12/15 08:49:07;;;;;;;19.07;14.20;;;8.80;99.90;;;;;;5036765;28;20175;-71
2021/12/15 08:51:34;;;;;;;19.53;13.93;;;8.80;99.90;;;;;;5040700;28;20206;-70
2021/12/15 08:54:05;;;;;;;24.23;15.77;;;8.80;99.90;;;;;;5034849;28;20215;-71
2021/12/15 08:56:32;;;;;;;17.70;13.53;;;8.90;99.90;;;;;;5046018;28;21019;-72
2021/12/15 08:58:59;;;;;;;19.47;15.10;;;9.10;99.90;;;;;;5039249;28;20215;-72
2021/12/15 09:01:25;;;;;;;21.53;13.90;;;9.30;99.90;;;;;;5028052;28;20182;-71
2021/12/15 09:03:53;;;;;;;17.37;13.40;;;9.40;99.90;;;;;;5029522;28;20187;-72
2021/12/15 09:06:19;;;;;;;23.63;15.57;;;9.50;99.90;;;;;;5030705;28;20204;-71
2021/12/15 09:08:46;;;;;;;24.07;14.33;;;9.50;99.90;;;;;;5026481;28;20207;-71
2021/12/15 09:11:28;;;;;;;28.83;17.73;;;9.50;99.90;;;;;;5031091;28;20674;-71
2021/12/15 09:14:00;;;;;;;31.17;20.73;;;9.50;99.90;;;;;;5032821;28;20186;-70
2021/12/15 09:16:31;;;;;;;18.90;15.10;;;9.60;99.90;;;;;;5042408;28;20847;-70
2021/12/15 09:18:59;;;;;;;17.77;13.77;;;9.60;99.90;;;;;;5044166;28;20196;-72
2021/12/15 09:21:28;;;;;;;45.20;29.33;;;9.70;99.90;;;;;;5043843;28;20175;-72
2021/12/15 09:23:55;;;;;;;24.60;16.77;;;9.60;99.90;;;;;;5049075;28;20179;-71
2021/12/15 09:26:24;;;;;;;18.47;13.43;;;9.70;99.90;;;;;;5051856;28;20810;-72
2021/12/15 09:28:50;;;;;;;19.27;14.90;;;9.70;99.90;;;;;;5047438;28;20172;-71
2021/12/15 09:31:22;;;;;;;21.30;15.60;;;9.70;99.90;;;;;;5036825;28;20203;-71
2021/12/15 09:33:52;;;;;;;21.17;13.90;;;9.70;99.90;;;;;;5037058;28;20226;-72
2021/12/15 09:36:20;;;;;;;21.80;16.03;;;9.80;99.90;;;;;;5042318;28;20180;-71
2021/12/15 09:38:53;;;;;;;17.17;12.77;;;9.80;99.90;;;;;;5036630;28;20588;-71
2021/12/15 09:41:23;;;;;;;21.93;16.10;;;9.70;99.90;;;;;;5043676;28;20181;-72
2021/12/15 09:43:52;;;;;;;23.27;16.03;;;9.70;99.90;;;;;;5045339;28;20644;-80
2021/12/15 10:11:44;;;;;;;21.10;15.53;;;9.50;99.90;;;;;;5040999;28;20212;-76
2021/12/15 10:20:15;;;;;;;19.47;14.70;;;9.50;99.90;;;;;;5037513;28;20184;-71
2021/12/15 10:22:47;;;;;;;19.63;14.60;;;9.50;99.90;;;;;;5039824;28;20179;-71
2021/12/15 10:25:25;;;;;;;21.57;15.53;;;9.50;99.90;;;;;;5039141;28;20177;-72
2021/12/15 10:27:56;;;;;;;20.03;14.27;;;9.50;99.90;;;;;;5042598;28;20194;-72
2021/12/15 10:30:33;;;;;;;20.60;15.33;;;9.50;99.90;;;;;;5038289;28;20573;-71
2021/12/15 10:33:10;;;;;;;18.07;13.70;;;9.50;99.90;;;;;;5037740;28;20242;-72
2021/12/15 10:35:58;;;;;;;20.67;14.60;;;9.50;99.90;;;;;;5038390;28;20188;-65
2021/12/15 10:38:32;;;;;;;18.87;15.17;;;9.60;99.90;;;;;;5042435;28;20207;-65
2021/12/15 10:41:29;;;;;;;20.57;13.93;;;9.70;99.90;;;;;;5049610;28;20184;-65
2021/12/15 10:43:58;;;;;;;20.17;13.60;;;9.60;99.90;;;;;;5038179;28;20171;-65
2021/12/15 10:46:31;;;;;;;18.73;13.80;;;9.60;99.90;;;;;;5038984;28;20314;-67
2021/12/15 10:49:07;;;;;;;18.90;14.27;;;9.50;99.90;;;;;;5040127;28;20188;-66
2021/12/15 10:51:43;;;;;;;20.93;14.53;;;9.50;99.90;;;;;;5039550;28;20172;-64
2021/12/15 10:54:08;;;;;;;19.13;13.70;;;9.60;99.90;;;;;;5036716;28;20673;-65
2021/12/15 10:56:37;;;;;;;18.43;14.10;;;9.60;99.90;;;;;;5032264;28;20203;-64
2021/12/15 10:59:09;;;;;;;20.70;14.40;;;9.60;99.90;;;;;;5037320;28;20208;-64
2021/12/15 11:01:40;;;;;;;20.23;13.73;;;9.60;99.90;;;;;;5028393;28;20165;-67
2021/12/15 11:04:31;;;;;;;18.93;14.20;;;9.60;99.90;;;;;;5029916;28;20169;-64
2021/12/15 11:07:19;;;;;;;16.73;13.63;;;9.60;99.90;;;;;;5028674;28;20178;-64
2021/12/15 11:09:53;;;;;;;16.10;13.13;;;9.70;99.90;;;;;;5028328;28;20181;-65
2021/12/15 11:12:38;;;;;;;15.60;12.63;;;9.70;99.90;;;;;;5028428;28;20177;-63
2021/12/15 11:15:06;;;;;;;14.40;11.83;;;9.90;99.90;;;;;;5028750;28;20203;-66
2021/12/15 11:17:40;;;;;;;14.77;11.43;;;9.80;99.90;;;;;;5029207;28;20226;-63
2021/12/15 11:20:12;;;;;;;14.03;11.27;;;9.70;99.90;;;;;;5025344;28;20215;-63
2021/12/15 11:22:44;;;;;;;14.63;11.70;;;9.80;99.90;;;;;;5037632;28;20183;-65
2021/12/15 11:25:23;;;;;;;16.77;12.00;;;9.90;99.90;;;;;;5029082;28;20188;-64
2021/12/15 11:27:56;;;;;;;12.97;11.00;;;9.80;99.90;;;;;;5028117;28;20963;-66
2021/12/15 11:30:34;;;;;;;16.07;12.00;;;9.90;99.90;;;;;;5027220;28;20722;-65
2021/12/15 11:33:07;;;;;;;17.37;12.20;;;9.80;99.90;;;;;;5028464;28;20184;-66
2021/12/15 11:35:37;;;;;;;13.97;11.93;;;9.90;99.90;;;;;;5026888;28;20249;-66
2021/12/15 11:38:14;;;;;;;13.43;11.03;;;9.90;99.90;;;;;;5027228;28;20320;-65
2021/12/15 11:40:59;;;;;;;14.33;11.63;;;9.90;99.90;;;;;;5027577;28;20650;-66
2021/12/15 11:43:35;;;;;;;13.23;11.83;;;9.90;99.90;;;;;;5028296;28;20299;-65
2021/12/15 11:46:11;;;;;;;13.37;11.17;;;10.00;99.90;;;;;;5029346;28;20189;-65
2021/12/15 11:48:39;;;;;;;16.87;12.50;;;9.90;99.90;;;;;;5028449;28;20189;-65
2021/12/15 11:51:08;;;;;;;12.13;10.27;;;9.90;99.90;;;;;;5027396;28;20186;-66
2021/12/15 11:53:39;;;;;;;12.80;10.90;;;9.90;99.90;;;;;;5030565;28;20241;-65
2021/12/15 11:56:16;;;;;;;14.67;11.77;;;9.90;99.90;;;;;;5036057;28;20691;-66
2021/12/15 11:58:46;;;;;;;11.13;9.60;;;10.10;99.90;;;;;;5036096;28;20236;-65
2021/12/15 12:01:42;;;;;;;12.93;9.63;;;10.20;99.90;;;;;;5028284;28;20231;-64
2021/12/15 12:04:29;;;;;;;13.73;9.50;;;10.10;99.90;;;;;;5027859;28;20204;-65
2021/12/15 12:07:24;;;;;;;12.33;10.00;;;10.20;99.90;;;;;;5026511;28;20622;-65
2021/12/15 12:10:05;;;;;;;11.10;9.13;;;10.20;99.90;;;;;;5027710;28;20808;-65
2021/12/15 12:12:39;;;;;;;12.23;8.70;;;10.30;99.90;;;;;;5027070;28;20262;-65
2021/12/15 12:15:13;;;;;;;13.43;9.80;;;10.30;99.90;;;;;;5026106;28;20181;-64
2021/12/15 12:17:40;;;;;;;13.40;9.27;;;10.40;99.90;;;;;;5026249;28;20212;-65
2021/12/15 12:20:20;;;;;;;10.93;9.47;;;10.40;99.90;;;;;;5026415;28;20184;-65
2021/12/15 12:22:48;;;;;;;12.70;9.77;;;10.30;99.90;;;;;;5026472;28;20187;-65
2021/12/15 12:25:22;;;;;;;11.10;9.13;;;10.30;99.90;;;;;;5026990;28;20592;-65
2021/12/15 12:27:48;;;;;;;11.07;9.00;;;10.20;99.90;;;;;;5030523;28;20175;-64
2021/12/15 12:30:19;;;;;;;12.17;9.27;;;10.20;99.90;;;;;;5025915;28;20188;-65
2021/12/15 12:32:46;;;;;;;18.80;10.60;;;10.30;99.90;;;;;;5026922;28;20185;-65
2021/12/15 12:35:17;;;;;;;12.40;9.20;;;10.30;99.90;;;;;;5027896;28;20189;-65
2021/12/15 12:37:43;;;;;;;9.27;8.03;;;10.30;99.90;;;;;;5027796;28;20205;-66
2021/12/15 12:40:23;;;;;;;13.13;9.60;;;10.20;99.90;;;;;;5028819;28;20525;-65
2021/12/15 12:42:49;;;;;;;13.20;9.73;;;10.20;99.90;;;;;;5026949;28;20175;-75
2021/12/15 12:45:38;;;;;;;14.07;10.10;;;10.20;99.90;;;;;;5030202;28;20519;-74
2021/12/15 12:48:33;;;;;;;12.30;9.60;;;10.20;99.90;;;;;;5027088;28;20268;-75
2021/12/15 12:59:57;;;;;;;12.43;9.37;;;10.10;99.90;;;;;;5026243;28;20720;-64
2021/12/15 13:02:27;;;;;;;11.47;9.83;;;10.30;99.90;;;;;;5025612;28;20197;-64
2021/12/15 13:04:53;;;;;;;11.23;8.77;;;10.40;99.90;;;;;;5025554;28;20183;-64
2021/12/15 13:07:46;;;;;;;12.67;9.67;;;10.30;99.90;;;;;;5025040;28;20181;-62
2021/12/15 13:10:11;;;;;;;12.47;9.63;;;10.20;99.90;;;;;;5025238;28;20183;-63
2021/12/15 13:12:40;;;;;;;11.60;9.00;;;10.20;99.90;;;;;;5025339;28;20182;-65
2021/12/15 13:15:09;;;;;;;12.90;9.80;;;10.20;99.90;;;;;;5025013;28;20708;-64
2021/12/15 13:17:54;;;;;;;12.97;10.47;;;10.20;99.90;;;;;;5025079;28;20755;-64
2021/12/15 13:20:26;;;;;;;12.97;10.17;;;10.20;99.90;;;;;;5025164;28;20177;-63
2021/12/15 13:23:04;;;;;;;15.43;11.10;;;10.20;99.90;;;;;;5025251;28;20391;-64
2021/12/15 13:28:44;;;;;;;13.03;10.50;;;10.10;99.90;;;;;;5025454;28;20178;-64
2021/12/15 13:31:23;;;;;;;13.77;9.83;;;10.20;99.90;;;;;;5025249;28;20629;-64
2021/12/15 13:33:56;;;;;;;10.57;8.83;;;10.20;99.90;;;;;;5025219;28;20741;-64
2021/12/15 13:36:23;;;;;;;13.97;10.23;;;10.20;99.90;;;;;;5025378;28;20232;-64
2021/12/15 13:38:51;;;;;;;14.23;10.47;;;10.30;99.90;;;;;;5024974;28;20204;-64
2021/12/15 13:41:47;;;;;;;14.93;9.63;;;10.40;99.90;;;;;;5025595;28;20181;-65
2021/12/15 13:44:40;;;;;;;13.40;10.80;;;10.40;99.90;;;;;;5025283;28;20213;-64
2021/12/15 13:47:09;;;;;;;18.70;11.23;;;10.30;99.90;;;;;;5025340;28;20230;-64
2021/12/15 13:49:58;;;;;;;12.07;9.57;;;10.30;99.90;;;;;;5024666;28;20176;-64
2021/12/15 13:52:38;;;;;;;14.70;10.27;;;10.30;99.90;;;;;;5026142;28;20182;-64
2021/12/15 13:55:12;;;;;;;13.80;10.10;;;10.30;99.90;;;;;;5028856;28;20181;-64
2021/12/15 13:57:46;;;;;;;14.90;10.13;;;10.20;99.90;;;;;;5028430;28;20575;-63
2021/12/15 14:00:43;;;;;;;13.83;10.63;;;10.30;99.90;;;;;;5029045;28;20168;-63
2021/12/15 14:03:24;;;;;;;12.90;10.60;;;10.30;99.90;;;;;;5027374;28;20186;-65
2021/12/15 14:05:49;;;;;;;13.57;9.97;;;10.30;99.90;;;;;;5028386;28;20713;-64
2021/12/15 14:08:39;;;;;;;12.87;9.20;;;10.30;99.90;;;;;;5028952;28;20263;-64
2021/12/15 14:11:11;;;;;;;12.60;9.93;;;10.30;99.90;;;;;;5028939;28;20186;-64
2021/12/15 14:13:51;;;;;;;12.60;10.20;;;10.30;99.90;;;;;;5028766;28;20197;-64
2021/12/15 14:16:34;;;;;;;13.77;10.50;;;10.30;99.90;;;;;;5028354;28;20231;-64
2021/12/15 14:19:03;;;;;;;14.90;11.03;;;10.30;99.90;;;;;;5028113;28;20353;-64
2021/12/15 14:21:31;;;;;;;11.50;9.97;;;10.20;99.90;;;;;;5027857;28;20173;-64